Time;durP1;ratioP1;P1;durP2;ratioP2;P2;SDS_P1;SDS_P2;PMS_P1;PMS_P2;Temp;Humidity;BMP_temperature;BMP_pressure;BME280_temperature;BME280_humidity;BME280_pressure;Samples;Min_cycle;Max_cycle;Signal;HPM_P1;HPM_P2
2021/05/01 00:02:23;;;;;;;1999.90;999.90;;;8.20;98.30;;;;;;5086995;28;20184;-71
2021/05/01 00:04:49;;;;;;;1999.90;999.90;;;8.20;98.20;;;;;;5087987;28;20060;-71
2021/05/01 00:07:15;;;;;;;1999.90;999.90;;;8.20;98.30;;;;;;5071480;28;20044;-71
2021/05/01 00:09:41;;;;;;;1999.90;999.90;;;8.20;98.70;;;;;;5089006;28;20052;-71
2021/05/01 00:12:08;;;;;;;1999.90;999.90;;;8.20;98.50;;;;;;5088865;28;20052;-71
2021/05/01 00:14:36;;;;;;;1999.90;999.90;;;8.10;98.50;;;;;;5086353;28;20403;-71
2021/05/01 00:17:03;;;;;;;1999.90;999.90;;;8.10;98.50;;;;;;5070695;28;20058;-71
2021/05/01 00:19:30;;;;;;;1999.90;999.90;;;8.10;98.50;;;;;;5080019;28;20055;-71
2021/05/01 00:21:56;;;;;;;1999.90;999.90;;;8.10;98.60;;;;;;5087776;28;20040;-71
2021/05/01 00:24:22;;;;;;;1999.90;999.90;;;8.10;98.80;;;;;;5087002;28;20317;-72
2021/05/01 00:26:48;;;;;;;1999.90;999.90;;;8.10;98.80;;;;;;5068176;28;20048;-71
2021/05/01 00:29:15;;;;;;;1999.90;999.90;;;8.10;98.80;;;;;;5088331;28;20126;-71
2021/05/01 00:31:41;;;;;;;1999.90;999.90;;;8.10;98.80;;;;;;5066850;28;20472;-71
2021/05/01 00:34:08;;;;;;;1999.90;999.90;;;8.10;99.00;;;;;;5087056;28;20048;-71
2021/05/01 00:36:34;;;;;;;1999.90;999.90;;;8.10;99.40;;;;;;5068401;28;20076;-71
2021/05/01 00:39:01;;;;;;;1999.90;999.90;;;8.10;99.10;;;;;;5078119;28;20171;-71
2021/05/01 00:41:27;;;;;;;1999.90;999.90;;;8.10;99.00;;;;;;5085521;28;20072;-71
2021/05/01 00:43:54;;;;;;;1999.90;999.90;;;8.10;99.00;;;;;;5086810;28;20040;-71
2021/05/01 00:46:20;;;;;;;1999.90;999.90;;;8.10;98.80;;;;;;5076567;28;20044;-71
2021/05/01 00:48:47;;;;;;;1999.90;999.90;;;8.10;98.80;;;;;;5076334;28;20497;-71
2021/05/01 00:51:13;;;;;;;1999.90;999.90;;;8.00;98.70;;;;;;5086110;28;20222;-71
2021/05/01 00:53:42;;;;;;;1999.90;999.90;;;8.00;98.60;;;;;;5078401;28;20463;-72
2021/05/01 00:56:08;;;;;;;1999.90;999.90;;;8.00;98.70;;;;;;5087611;28;20050;-71
2021/05/01 00:58:34;;;;;;;1999.90;999.90;;;7.90;98.70;;;;;;5083403;28;20051;-71
2021/05/01 01:01:17;;;;;;;1999.90;999.90;;;7.90;98.70;;;;;;5073554;28;20063;-71
2021/05/01 01:03:44;;;;;;;1999.90;999.90;;;7.90;98.80;;;;;;5090808;28;20044;-71
2021/05/01 01:06:13;;;;;;;1999.90;999.90;;;7.80;98.50;;;;;;5083786;28;20045;-71
2021/05/01 01:08:40;;;;;;;1999.90;999.90;;;7.70;98.40;;;;;;5092365;28;20155;-71
2021/05/01 01:11:07;;;;;;;1999.90;999.90;;;7.70;98.30;;;;;;5091018;28;20048;-71
2021/05/01 01:13:34;;;;;;;1999.90;999.90;;;7.60;98.00;;;;;;5085246;28;20056;-72
2021/05/01 01:16:01;;;;;;;1999.90;999.90;;;7.60;98.10;;;;;;5074344;28;20135;-71
2021/05/01 01:18:28;;;;;;;1999.90;999.90;;;7.50;98.10;;;;;;5091154;28;20362;-71
2021/05/01 01:20:59;;;;;;;1999.90;999.90;;;7.50;98.10;;;;;;5088270;28;20136;-71
2021/05/01 01:23:27;;;;;;;1999.90;999.90;;;7.40;98.00;;;;;;5090252;28;20131;-71
2021/05/01 01:25:53;;;;;;;1999.90;999.90;;;7.30;98.00;;;;;;5075663;28;20256;-71
2021/05/01 01:28:19;;;;;;;1999.90;999.90;;;7.30;98.10;;;;;;5090970;28;20351;-71
2021/05/01 01:30:46;;;;;;;1999.90;999.90;;;7.30;98.10;;;;;;5087967;28;20576;-71
2021/05/01 01:33:12;;;;;;;1999.90;999.90;;;7.20;98.10;;;;;;5089961;28;20127;-72
2021/05/01 01:35:39;;;;;;;1999.90;999.90;;;7.20;98.20;;;;;;5088906;28;20079;-72
2021/05/01 01:38:06;;;;;;;1999.90;999.90;;;7.20;98.20;;;;;;5089636;28;20051;-72
2021/05/01 01:40:35;;;;;;;1999.90;999.90;;;7.10;98.10;;;;;;5089121;28;20560;-72
2021/05/01 01:43:01;;;;;;;1999.90;999.90;;;7.00;98.10;;;;;;5090756;28;20392;-71
2021/05/01 01:45:28;;;;;;;1999.90;999.90;;;7.00;98.10;;;;;;5088464;28;20048;-71
2021/05/01 01:47:56;;;;;;;1999.90;999.90;;;6.90;98.00;;;;;;5090093;28;20157;-71
2021/05/01 01:50:23;;;;;;;1999.90;999.90;;;6.90;98.20;;;;;;5091112;28;20430;-71
2021/05/01 01:52:51;;;;;;;1999.90;999.90;;;6.80;98.10;;;;;;5090092;28;20455;-72
2021/05/01 01:55:19;;;;;;;1999.90;999.90;;;6.80;98.20;;;;;;5090132;28;20044;-71
2021/05/01 01:57:46;;;;;;;1999.90;999.90;;;6.80;98.10;;;;;;5085210;28;20477;-71
2021/05/01 02:00:24;;;;;;;1999.90;999.90;;;6.70;98.10;;;;;;5072061;28;20044;-71
2021/05/01 02:02:51;;;;;;;1999.90;999.90;;;6.70;98.10;;;;;;5090246;28;20128;-71
2021/05/01 02:05:17;;;;;;;1999.90;999.90;;;6.60;98.00;;;;;;5089248;28;20115;-72
2021/05/01 02:07:44;;;;;;;1999.90;999.90;;;6.60;98.00;;;;;;5090025;28;20410;-72
2021/05/01 02:10:11;;;;;;;1999.90;999.90;;;6.60;98.00;;;;;;5089670;28;20048;-71
2021/05/01 02:12:39;;;;;;;1999.90;999.90;;;6.50;98.00;;;;;;5083532;28;20140;-71
2021/05/01 02:15:17;;;;;;;1999.90;999.90;;;6.40;98.00;;;;;;5088205;28;20042;-71
2021/05/01 02:17:47;;;;;;;1999.90;999.90;;;6.40;98.20;;;;;;5066064;28;20048;-72
2021/05/01 02:20:21;;;;;;;1999.90;999.90;;;6.40;98.20;;;;;;5090321;28;20058;-71
2021/05/01 02:22:47;;;;;;;1999.90;999.90;;;6.40;98.30;;;;;;5086212;28;20051;-71
2021/05/01 02:25:14;;;;;;;1999.90;999.90;;;6.30;98.30;;;;;;5077213;28;20051;-71
2021/05/01 02:27:41;;;;;;;1999.90;999.90;;;6.40;98.30;;;;;;5088762;28;20056;-71
2021/05/01 02:30:13;;;;;;;1999.90;999.90;;;6.40;98.30;;;;;;5089903;28;20483;-71
2021/05/01 02:32:40;;;;;;;1999.90;999.90;;;6.40;98.40;;;;;;5088734;28;20511;-71
2021/05/01 02:35:08;;;;;;;1999.90;999.90;;;6.30;98.20;;;;;;5088333;28;20459;-71
2021/05/01 02:37:35;;;;;;;1999.90;999.90;;;6.30;98.20;;;;;;5089279;28;20460;-71
2021/05/01 02:40:07;;;;;;;1999.90;999.90;;;6.30;98.20;;;;;;5090224;28;20253;-71
2021/05/01 02:42:33;;;;;;;1999.90;999.90;;;6.30;98.20;;;;;;5070072;28;20051;-71
2021/05/01 02:44:59;;;;;;;1999.90;999.90;;;6.20;98.10;;;;;;5088354;28;20048;-71
2021/05/01 02:47:25;;;;;;;1999.90;999.90;;;6.20;98.00;;;;;;5071277;28;20162;-72
2021/05/01 02:49:52;;;;;;;1999.90;999.90;;;6.10;97.90;;;;;;5072876;28;20101;-72
2021/05/01 02:52:18;;;;;;;1999.90;999.90;;;6.00;97.90;;;;;;5088878;28;20048;-71
2021/05/01 02:54:44;;;;;;;1999.90;999.90;;;5.90;97.90;;;;;;5089022;28;20059;-71
2021/05/01 02:57:11;;;;;;;1999.90;999.90;;;5.90;98.00;;;;;;5087819;28;20040;-71
2021/05/01 02:59:38;;;;;;;1999.90;999.90;;;5.80;98.00;;;;;;5091251;28;20514;-71
2021/05/01 03:02:05;;;;;;;1999.90;999.90;;;5.80;98.00;;;;;;5089036;28;20044;-71
2021/05/01 03:04:31;;;;;;;1999.90;999.90;;;5.70;98.00;;;;;;5073122;28;20113;-71
2021/05/01 03:06:58;;;;;;;1999.90;999.90;;;5.70;98.00;;;;;;5088268;28;20048;-71
2021/05/01 03:09:24;;;;;;;1999.90;999.90;;;5.60;98.00;;;;;;5090166;28;20048;-71
2021/05/01 03:11:50;;;;;;;1999.90;999.90;;;5.60;98.00;;;;;;5087565;28;20066;-71
2021/05/01 03:14:16;;;;;;;1999.90;999.90;;;5.50;98.00;;;;;;5087643;28;20052;-71
2021/05/01 03:16:43;;;;;;;1999.90;999.90;;;5.40;98.00;;;;;;5088546;28;20138;-72
2021/05/01 03:19:09;;;;;;;1999.90;999.90;;;5.40;98.10;;;;;;5079228;28;20140;-71
2021/05/01 03:21:35;;;;;;;1999.90;999.90;;;5.30;98.10;;;;;;5075549;28;20044;-71
2021/05/01 03:24:02;;;;;;;1999.90;999.90;;;5.30;98.10;;;;;;5087272;28;20044;-71
2021/05/01 03:26:28;;;;;;;1999.90;999.90;;;5.30;98.10;;;;;;5089857;28;20059;-71
2021/05/01 03:28:55;;;;;;;1999.90;999.90;;;5.30;98.10;;;;;;5089835;28;20048;-71
2021/05/01 03:31:21;;;;;;;1999.90;999.90;;;5.30;98.10;;;;;;5082739;28;20044;-71
2021/05/01 03:33:47;;;;;;;1999.90;999.90;;;5.20;98.00;;;;;;5069685;28;20040;-71
2021/05/01 03:36:13;;;;;;;1999.90;999.90;;;5.20;98.00;;;;;;5087082;28;20086;-71
2021/05/01 03:38:39;;;;;;;1999.90;999.90;;;5.20;98.20;;;;;;5088663;28;20040;-71
2021/05/01 03:41:06;;;;;;;1999.90;999.90;;;5.10;97.90;;;;;;5069600;28;20040;-71
2021/05/01 03:43:32;;;;;;;1999.90;999.90;;;5.10;98.10;;;;;;5088014;28;20054;-71
2021/05/01 03:45:58;;;;;;;1999.90;999.90;;;5.10;97.80;;;;;;5088191;28;20070;-71
2021/05/01 03:48:25;;;;;;;1999.90;999.90;;;5.00;97.80;;;;;;5082334;28;20051;-71
2021/05/01 03:50:51;;;;;;;1999.90;999.90;;;5.00;97.80;;;;;;5087858;28;20139;-71
2021/05/01 03:53:18;;;;;;;1999.90;999.90;;;4.90;97.80;;;;;;5088176;28;20139;-71
2021/05/01 03:55:44;;;;;;;1999.90;999.90;;;4.90;97.80;;;;;;5088308;28;20116;-72
2021/05/01 03:58:10;;;;;;;1999.90;999.90;;;4.90;97.80;;;;;;5088228;28;20119;-71
2021/05/01 04:00:36;;;;;;;1999.90;999.90;;;4.80;97.90;;;;;;5070109;28;20375;-71
2021/05/01 04:03:03;;;;;;;1999.90;999.90;;;4.80;97.90;;;;;;5088297;28;20418;-71
2021/05/01 04:05:29;;;;;;;1999.90;999.90;;;4.70;97.90;;;;;;5071352;28;20047;-71
2021/05/01 04:07:55;;;;;;;1999.90;999.90;;;4.70;98.00;;;;;;5093458;28;20311;-71
2021/05/01 04:10:21;;;;;;;1999.90;999.90;;;4.70;98.00;;;;;;5089091;28;20099;-71
2021/05/01 04:12:48;;;;;;;1999.90;999.90;;;4.70;97.90;;;;;;5086910;28;20487;-72
2021/05/01 04:15:14;;;;;;;1999.90;999.90;;;4.70;97.90;;;;;;5080199;28;20532;-72
2021/05/01 04:17:41;;;;;;;1999.90;999.90;;;4.60;97.80;;;;;;5065136;28;20041;-71
2021/05/01 04:20:08;;;;;;;1999.90;999.90;;;4.60;97.90;;;;;;5083626;28;20423;-71
2021/05/01 04:22:34;;;;;;;1999.90;999.90;;;4.50;98.00;;;;;;5079142;28;20127;-71
2021/05/01 04:25:01;;;;;;;1999.90;999.90;;;4.50;98.00;;;;;;5083371;28;20215;-71
2021/05/01 04:27:29;;;;;;;1999.90;999.90;;;4.50;98.00;;;;;;5074152;28;20135;-71
2021/05/01 04:29:56;;;;;;;1999.90;999.90;;;4.50;98.00;;;;;;5080894;28;20098;-72
2021/05/01 04:32:23;;;;;;;1999.90;999.90;;;4.50;98.10;;;;;;5066610;28;20048;-71
2021/05/01 04:34:49;;;;;;;1999.90;999.90;;;4.50;98.20;;;;;;5084544;28;20051;-71
2021/05/01 04:37:15;;;;;;;1999.90;999.90;;;4.50;98.00;;;;;;5085508;28;20131;-71
2021/05/01 04:39:42;;;;;;;1999.90;999.90;;;4.50;97.90;;;;;;5081830;28;20158;-71
2021/05/01 04:42:08;;;;;;;1999.90;999.90;;;4.50;97.90;;;;;;5092867;28;20047;-72
2021/05/01 04:44:35;;;;;;;1999.90;999.90;;;4.50;97.90;;;;;;5091900;28;20051;-71
2021/05/01 04:47:03;;;;;;;1999.90;999.90;;;4.50;98.00;;;;;;5091380;28;20093;-71
2021/05/01 04:49:30;;;;;;;1999.90;999.90;;;4.50;98.00;;;;;;5091686;28;20052;-71
2021/05/01 04:51:58;;;;;;;1999.90;999.90;;;4.50;98.20;;;;;;5073623;28;20055;-71
2021/05/01 04:54:25;;;;;;;1999.90;999.90;;;4.50;98.20;;;;;;5090334;28;20044;-71
2021/05/01 04:56:51;;;;;;;1999.90;999.90;;;4.60;98.30;;;;;;5089357;28;20094;-71
2021/05/01 04:59:17;;;;;;;1999.90;999.90;;;4.60;98.40;;;;;;5091885;28;20123;-71
2021/05/01 05:01:43;;;;;;;1999.90;999.90;;;4.70;98.50;;;;;;5091436;28;20082;-71
2021/05/01 05:04:09;;;;;;;1999.90;999.90;;;4.70;98.60;;;;;;5086528;28;20510;-72
2021/05/01 05:06:35;;;;;;;1999.90;999.90;;;4.80;98.60;;;;;;5090028;28;20048;-71
2021/05/01 05:09:02;;;;;;;1999.90;999.90;;;4.90;98.60;;;;;;5077683;28;20518;-71
2021/05/01 05:11:29;;;;;;;1999.90;999.90;;;4.90;98.70;;;;;;5090778;28;20080;-71
2021/05/01 05:13:55;;;;;;;1999.90;999.90;;;4.90;98.70;;;;;;5066139;28;20574;-72
2021/05/01 05:16:22;;;;;;;1999.90;999.90;;;5.00;98.80;;;;;;5075663;28;20526;-71
2021/05/01 05:18:49;;;;;;;1999.90;999.90;;;5.00;98.90;;;;;;5089942;28;20127;-71
2021/05/01 05:21:15;;;;;;;1999.90;999.90;;;5.10;99.00;;;;;;5093534;27;20040;-71
2021/05/01 05:23:42;;;;;;;1999.90;999.90;;;5.10;99.10;;;;;;5082281;28;20147;-72
2021/05/01 05:26:08;;;;;;;1999.90;999.90;;;5.10;99.20;;;;;;5079433;28;20045;-71
2021/05/01 05:28:34;;;;;;;1999.90;999.90;;;5.20;99.30;;;;;;5088895;28;20062;-71
2021/05/01 05:31:01;;;;;;;1999.90;999.90;;;5.30;99.50;;;;;;5088628;28;20763;-72
2021/05/01 05:33:29;;;;;;;1999.90;999.90;;;5.30;99.50;;;;;;5090379;28;20051;-71
2021/05/01 05:35:55;;;;;;;1999.90;999.90;;;5.40;99.60;;;;;;5088367;28;20340;-71
2021/05/01 05:38:22;;;;;;;1999.90;999.90;;;5.50;99.70;;;;;;5107990;27;20195;-72
2021/05/01 05:40:48;;;;;;;1999.90;999.90;;;5.60;99.90;;;;;;5067353;28;20125;-72
2021/05/01 05:43:14;;;;;;;1999.90;999.90;;;5.70;99.90;;;;;;5067740;28;20079;-71
2021/05/01 05:45:43;;;;;;;1999.90;999.90;;;5.80;99.90;;;;;;5089573;28;20048;-71
2021/05/01 05:48:09;;;;;;;1999.90;999.90;;;5.90;99.90;;;;;;5077749;28;20125;-71
2021/05/01 05:50:36;;;;;;;1999.90;999.90;;;6.00;99.90;;;;;;5088192;28;20561;-71
2021/05/01 05:53:02;;;;;;;1999.90;999.90;;;6.10;99.90;;;;;;5088967;28;20086;-72
2021/05/01 05:55:28;;;;;;;1999.90;999.90;;;6.20;99.90;;;;;;5075623;28;20056;-71
2021/05/01 05:57:56;;;;;;;1999.90;999.90;;;6.30;99.90;;;;;;5095967;27;20048;-72
2021/05/01 06:00:24;;;;;;;1999.90;999.90;;;6.30;99.90;;;;;;5071281;28;20068;-71
2021/05/01 06:02:59;;;;;;;1999.90;999.90;;;6.40;99.90;;;;;;5080640;28;20435;-71
2021/05/01 06:05:34;;;;;;;1999.90;999.90;;;6.50;99.90;;;;;;5089626;28;20040;-72
2021/05/01 06:08:05;;;;;;;1999.90;999.90;;;6.60;99.90;;;;;;5105546;27;20054;-72
2021/05/01 06:10:32;;;;;;;1999.90;999.90;;;6.60;99.90;;;;;;5091486;28;20483;-71
2021/05/01 06:20:40;;;;;;;1999.90;999.90;;;6.90;99.90;;;;;;5088896;28;20046;-72
2021/05/01 06:23:06;;;;;;;1999.90;999.90;;;7.10;99.90;;;;;;5098125;27;20323;-72
2021/05/01 06:25:35;;;;;;;1999.90;999.90;;;7.20;99.90;;;;;;5090466;28;20044;-72
2021/05/01 06:28:01;;;;;;;1999.90;999.90;;;7.30;99.90;;;;;;5089356;28;21949;-72
2021/05/01 06:30:27;;;;;;;1999.90;999.90;;;7.30;99.90;;;;;;5074142;28;20072;-72
2021/05/01 06:32:55;;;;;;;1999.90;999.90;;;7.40;99.90;;;;;;5107692;27;20139;-72
2021/05/01 06:35:23;;;;;;;1999.90;999.90;;;7.50;99.90;;;;;;5089481;28;20048;-71
2021/05/01 06:37:51;;;;;;;1999.90;999.90;;;7.50;99.90;;;;;;5091277;28;20056;-72
2021/05/01 06:40:21;;;;;;;1999.90;999.90;;;7.60;99.90;;;;;;5076987;28;20071;-71
2021/05/01 06:43:03;;;;;;;1999.90;999.90;;;7.70;99.90;;;;;;5084566;28;20044;-71
2021/05/01 06:45:31;;;;;;;1999.90;999.90;;;7.80;99.90;;;;;;5082337;28;20088;-72
2021/05/01 06:48:02;;;;;;;1999.90;999.90;;;7.90;99.90;;;;;;5087988;28;20047;-71
2021/05/01 06:50:29;;;;;;;1999.90;999.90;;;8.00;99.90;;;;;;5080728;28;20062;-71
2021/05/01 06:52:57;;;;;;;1999.90;999.90;;;8.10;99.90;;;;;;5077279;28;20054;-71
2021/05/01 06:55:27;;;;;;;1999.90;999.90;;;8.20;99.90;;;;;;5090382;28;20110;-72
2021/05/01 06:57:54;;;;;;;;;;;8.20;99.90;;;;;;5081569;28;20044;-71
2021/05/01 07:00:22;;;;;;;1999.90;999.90;;;8.30;99.90;;;;;;5088142;28;19926;-71
2021/05/01 07:02:53;;;;;;;1999.90;999.90;;;8.40;99.90;;;;;;5081389;28;20098;-71
2021/05/01 07:05:22;;;;;;;1999.90;999.90;;;8.40;99.90;;;;;;5086554;28;20048;-71
2021/05/01 07:07:48;;;;;;;1999.90;999.90;;;8.50;99.90;;;;;;5085323;28;20046;-72
2021/05/01 07:10:16;;;;;;;1999.90;999.90;;;8.60;99.90;;;;;;5084873;28;20044;-71
2021/05/01 07:12:46;;;;;;;1999.90;999.90;;;8.70;99.90;;;;;;5085175;28;20080;-71
2021/05/01 07:15:13;;;;;;;;;;;8.80;99.90;;;;;;5087993;28;20508;-71
2021/05/01 07:17:40;;;;;;;1999.90;999.90;;;8.90;99.90;;;;;;5081383;28;19931;-72
2021/05/01 07:20:12;;;;;;;1999.90;999.90;;;9.00;99.90;;;;;;5094754;28;20124;-71
2021/05/01 07:22:39;;;;;;;1999.90;999.90;;;9.10;99.90;;;;;;5056533;28;20051;-71
2021/05/01 07:25:07;;;;;;;1999.90;999.90;;;9.20;99.90;;;;;;5073592;28;20119;-71
2021/05/01 07:27:49;;;;;;;1999.90;999.90;;;9.20;99.90;;;;;;5074226;28;20063;-71
2021/05/01 07:30:17;;;;;;;1999.90;999.90;;;9.30;99.90;;;;;;5096132;28;20069;-71
2021/05/01 07:32:45;;;;;;;1999.90;999.90;;;9.40;99.90;;;;;;5076664;28;20114;-72
2021/05/01 07:35:15;;;;;;;1999.90;999.90;;;9.40;99.90;;;;;;5081352;28;20052;-72
2021/05/01 07:37:44;;;;;;;1999.90;999.90;;;9.40;99.90;;;;;;5086114;28;20278;-72
2021/05/01 07:40:12;;;;;;;1999.90;999.90;;;9.40;99.90;;;;;;5080078;28;20040;-71
2021/05/01 07:42:42;;;;;;;1999.90;999.90;;;9.60;99.90;;;;;;5066112;28;20135;-72
2021/05/01 07:45:10;;;;;;;1999.90;999.90;;;9.70;99.90;;;;;;5074857;28;20051;-72
2021/05/01 07:47:37;;;;;;;1999.90;999.90;;;9.90;99.90;;;;;;5074786;28;20393;-72
2021/05/01 07:50:04;;;;;;;1999.90;999.90;;;9.90;99.90;;;;;;5066521;28;20113;-71
2021/05/01 07:52:32;;;;;;;1999.90;999.90;;;9.90;99.90;;;;;;5075952;28;20054;-72
2021/05/01 07:54:58;;;;;;;1999.90;999.90;;;10.00;99.90;;;;;;5081179;28;20127;-72
2021/05/01 07:57:25;;;;;;;1999.90;999.90;;;10.10;99.90;;;;;;5070551;28;20045;-71
2021/05/01 07:59:51;;;;;;;1999.90;999.90;;;10.30;99.90;;;;;;5082224;28;20048;-72
2021/05/01 08:02:18;;;;;;;1999.90;999.90;;;10.40;99.90;;;;;;5081365;28;20084;-72
2021/05/01 08:04:57;;;;;;;1999.90;999.90;;;10.50;99.90;;;;;;5073431;28;20047;-72
2021/05/01 08:07:23;;;;;;;1999.90;999.90;;;10.50;99.90;;;;;;5070490;28;20057;-72
2021/05/01 08:09:50;;;;;;;1999.90;999.90;;;10.40;99.90;;;;;;5082880;28;20132;-71
2021/05/01 08:12:16;;;;;;;1999.90;999.90;;;10.60;99.90;;;;;;5072890;28;20052;-72
2021/05/01 08:14:42;;;;;;;1999.90;999.90;;;10.70;99.90;;;;;;5069975;28;20364;-71
2021/05/01 08:17:08;;;;;;;1999.90;999.90;;;10.80;99.90;;;;;;5086462;28;20519;-71
2021/05/01 08:19:35;;;;;;;1999.90;999.90;;;10.70;99.90;;;;;;5067124;28;20068;-72
2021/05/01 08:22:03;;;;;;;1999.90;999.90;;;10.70;99.90;;;;;;5069647;28;20071;-72
2021/05/01 08:24:29;;;;;;;1999.90;999.90;;;10.80;99.90;;;;;;5080112;28;20052;-72
2021/05/01 08:26:55;;;;;;;1999.90;999.90;;;11.00;99.90;;;;;;5086926;28;20464;-72
2021/05/01 08:29:21;;;;;;;1999.90;999.90;;;11.10;99.90;;;;;;5085129;28;20048;-71
2021/05/01 08:31:48;;;;;;;1999.90;999.90;;;11.10;99.20;;;;;;5067981;28;20052;-72
2021/05/01 08:34:14;;;;;;;1999.90;999.90;;;11.00;99.30;;;;;;5085480;28;20131;-72
2021/05/01 08:36:40;;;;;;;1999.90;999.90;;;11.00;99.50;;;;;;5086328;28;20422;-72
2021/05/01 08:39:06;;;;;;;1999.90;999.90;;;11.10;99.70;;;;;;5086154;28;20387;-71
2021/05/01 08:41:33;;;;;;;1999.90;999.90;;;11.30;99.60;;;;;;5086811;28;20087;-71
2021/05/01 08:44:06;;;;;;;1999.90;999.90;;;11.50;99.90;;;;;;5079474;28;20042;-72
2021/05/01 08:46:32;;;;;;;1999.90;999.90;;;11.60;98.40;;;;;;5073379;28;20036;-72
2021/05/01 08:48:58;;;;;;;1999.90;999.90;;;11.80;98.60;;;;;;5083785;28;20050;-72
2021/05/01 08:51:24;;;;;;;1999.90;999.90;;;11.90;98.50;;;;;;5085975;28;20054;-72
2021/05/01 08:53:52;;;;;;;1999.90;999.90;;;12.00;98.10;;;;;;5060283;28;20058;-71
2021/05/01 08:56:22;;;;;;;1999.90;999.90;;;12.00;98.10;;;;;;5076305;28;20499;-71
2021/05/01 08:58:49;;;;;;;1999.90;999.90;;;12.00;97.30;;;;;;5082344;28;20050;-72
2021/05/01 09:01:15;;;;;;;1999.90;999.90;;;11.80;97.60;;;;;;5079930;28;20348;-72
2021/05/01 09:03:43;;;;;;;1999.90;999.90;;;11.60;96.40;;;;;;5083521;28;20044;-72
2021/05/01 09:06:10;;;;;;;1999.90;999.90;;;11.20;96.20;;;;;;5078510;28;20120;-72
2021/05/01 09:08:41;;;;;;;1999.90;999.90;;;10.80;96.40;;;;;;5080833;28;20071;-72
2021/05/01 09:11:08;;;;;;;1999.90;999.90;;;10.50;96.40;;;;;;5084928;28;20364;-71
2021/05/01 09:13:44;;;;;;;1999.90;999.90;;;10.30;96.20;;;;;;5083269;28;20052;-72
2021/05/01 09:16:11;;;;;;;1999.90;999.90;;;10.10;96.20;;;;;;5072909;28;20440;-71
2021/05/01 09:18:46;;;;;;;1999.90;999.90;;;9.90;96.60;;;;;;5069012;28;20040;-72
2021/05/01 09:21:15;;;;;;;1999.90;999.90;;;9.80;96.70;;;;;;5091702;28;20070;-72
2021/05/01 09:23:41;;;;;;;1999.90;999.90;;;9.70;96.80;;;;;;5083686;28;20720;-72
2021/05/01 09:26:08;;;;;;;1999.90;999.90;;;9.70;96.80;;;;;;5083079;28;20123;-71
2021/05/01 09:28:48;;;;;;;1999.90;999.90;;;9.70;96.70;;;;;;5086856;28;20458;-72
2021/05/01 09:31:19;;;;;;;1999.90;999.90;;;9.70;96.70;;;;;;5086377;28;20060;-72
2021/05/01 09:33:49;;;;;;;1999.90;999.90;;;9.70;96.50;;;;;;5062681;28;20090;-72
2021/05/01 09:36:22;;;;;;;1999.90;999.90;;;9.70;96.50;;;;;;5080150;28;20040;-71
2021/05/01 09:39:07;;;;;;;1999.90;999.90;;;9.70;96.60;;;;;;5075698;28;20043;-72
2021/05/01 09:41:42;;;;;;;1999.90;999.90;;;9.80;96.90;;;;;;5075411;28;20392;-71
2021/05/01 09:44:18;;;;;;;1999.90;999.90;;;10.10;96.80;;;;;;5082851;28;20040;-71
2021/05/01 09:46:51;;;;;;;1999.90;999.90;;;10.50;97.20;;;;;;5081578;28;20105;-71
2021/05/01 09:49:27;;;;;;;1999.90;999.90;;;10.80;97.00;;;;;;5081449;28;20044;-72
2021/05/01 09:51:55;;;;;;;1999.90;999.90;;;11.10;97.30;;;;;;5082025;28;20380;-71
2021/05/01 09:54:31;;;;;;;1999.90;999.90;;;11.30;97.40;;;;;;5078419;28;20432;-72
2021/05/01 09:57:04;;;;;;;1999.90;999.90;;;11.60;97.80;;;;;;5087683;28;20119;-72
2021/05/01 09:59:52;;;;;;;1999.90;999.90;;;12.00;98.00;;;;;;5083244;28;20663;-72
2021/05/01 10:02:33;;;;;;;1999.90;999.90;;;12.20;96.50;;;;;;5080463;28;20497;-72
2021/05/01 10:05:05;;;;;;;1999.90;999.90;;;12.50;96.10;;;;;;5074899;28;20137;-72
2021/05/01 10:07:32;;;;;;;1999.90;999.90;;;12.50;97.20;;;;;;5079044;28;20586;-72
2021/05/01 10:09:59;;;;;;;1999.90;999.90;;;12.70;96.90;;;;;;5075582;28;20409;-72
2021/05/01 10:12:36;;;;;;;1999.90;999.90;;;12.80;96.00;;;;;;5075379;28;20115;-72
2021/05/01 10:15:14;;;;;;;1999.90;999.90;;;12.70;94.80;;;;;;5070245;28;20045;-72
2021/05/01 10:17:40;;;;;;;1999.90;999.90;;;12.50;95.10;;;;;;5070050;28;20044;-71
2021/05/01 10:20:07;;;;;;;1999.90;999.90;;;12.30;94.90;;;;;;5067158;28;20036;-71
2021/05/01 10:22:42;;;;;;;1999.90;999.90;;;12.10;94.30;;;;;;5082987;28;20054;-72
2021/05/01 10:25:17;;;;;;;1999.90;999.90;;;12.00;94.30;;;;;;5089156;28;20044;-71
2021/05/01 10:27:47;;;;;;;1999.90;999.90;;;12.10;92.90;;;;;;5087811;28;20070;-71
2021/05/01 10:30:29;;;;;;;1999.90;999.90;;;12.00;94.50;;;;;;5085048;28;20050;-72
2021/05/01 10:33:18;;;;;;;1999.90;999.90;;;12.00;94.20;;;;;;5084631;28;20238;-71
2021/05/01 10:36:23;;;;;;;1999.90;999.90;;;11.90;93.90;;;;;;5086772;28;20066;-72
2021/05/01 10:39:09;;;;;;;1999.90;999.90;;;12.00;94.70;;;;;;5086220;28;20081;-71
2021/05/01 10:41:37;;;;;;;1999.90;999.90;;;12.40;94.30;;;;;;5086629;28;20047;-71
2021/05/01 10:44:07;;;;;;;1999.90;999.90;;;12.80;93.70;;;;;;5086786;28;20048;-72
2021/05/01 10:46:38;;;;;;;1999.90;999.90;;;13.20;94.70;;;;;;5086418;28;20043;-71
2021/05/01 10:49:07;;;;;;;1999.90;999.90;;;13.40;93.90;;;;;;5084640;28;20052;-72
2021/05/01 10:51:54;;;;;;;1999.90;999.90;;;13.50;94.10;;;;;;5070488;28;20052;-71
2021/05/01 10:54:24;;;;;;;1999.90;999.90;;;13.60;92.70;;;;;;5086741;28;20280;-72
2021/05/01 10:56:53;;;;;;;1999.90;999.90;;;13.80;96.10;;;;;;5092278;28;20131;-72
2021/05/01 10:59:22;;;;;;;1999.90;999.90;;;14.00;95.70;;;;;;5085416;28;20054;-72
2021/05/01 11:01:51;;;;;;;1999.90;999.90;;;14.20;96.20;;;;;;5080881;28;20040;-72
2021/05/01 11:04:19;;;;;;;1999.90;999.90;;;14.30;96.70;;;;;;5086587;28;20085;-72
2021/05/01 11:07:06;;;;;;;1999.90;999.90;;;14.50;98.90;;;;;;5077681;28;20054;-72
2021/05/01 11:09:39;;;;;;;;;;;14.60;98.90;;;;;;5083280;28;20051;-72
2021/05/01 11:12:12;;;;;;;1999.90;999.90;;;14.40;85.60;;;;;;5083744;28;19955;-71
2021/05/01 11:14:42;;;;;;;1999.90;999.90;;;14.30;93.90;;;;;;5080833;28;20044;-72
2021/05/01 11:17:12;;;;;;;1999.90;999.90;;;14.20;94.60;;;;;;5085712;28;20167;-72
2021/05/01 11:19:45;;;;;;;1999.90;999.90;;;14.00;94.20;;;;;;5089087;28;20040;-71
2021/05/01 11:22:14;;;;;;;1999.90;999.90;;;13.80;93.60;;;;;;5095990;27;20051;-71
2021/05/01 11:24:42;;;;;;;1999.90;999.90;;;13.90;94.20;;;;;;5069795;28;20090;-72
2021/05/01 11:27:08;;;;;;;1999.90;999.90;;;14.00;95.00;;;;;;5085843;28;20134;-71
2021/05/01 11:29:38;;;;;;;1999.90;999.90;;;14.20;94.30;;;;;;5073123;28;20491;-71
2021/05/01 11:32:05;;;;;;;1999.90;999.90;;;14.10;93.30;;;;;;5085461;28;20056;-72
2021/05/01 11:34:33;;;;;;;1999.90;999.90;;;13.90;92.20;;;;;;5082009;28;20139;-71
2021/05/01 11:37:03;;;;;;;1999.90;999.90;;;13.80;92.70;;;;;;5079210;28;20056;-72
2021/05/01 11:39:30;;;;;;;1999.90;999.90;;;13.80;92.30;;;;;;5081546;28;20141;-72
2021/05/01 11:41:58;;;;;;;1999.90;999.90;;;13.90;91.90;;;;;;5085641;28;20146;-71
2021/05/01 11:44:25;;;;;;;1999.90;999.90;;;13.90;90.00;;;;;;5086843;28;20048;-71
2021/05/01 11:46:57;;;;;;;1999.90;999.90;;;14.00;90.10;;;;;;5071745;28;20041;-71
2021/05/01 11:49:27;;;;;;;1999.90;999.90;;;14.20;90.50;;;;;;5082931;28;20128;-71
2021/05/01 11:52:20;;;;;;;1999.90;999.90;;;14.20;90.00;;;;;;5085792;28;20100;-72
2021/05/01 11:55:09;;;;;;;1999.90;999.90;;;14.20;80.10;;;;;;5083130;28;20052;-72
2021/05/01 11:57:44;;;;;;;1999.90;999.90;;;14.50;85.00;;;;;;5074618;28;20066;-71
2021/05/01 12:00:11;;;;;;;1999.90;999.90;;;14.80;90.20;;;;;;5085874;28;20484;-71
2021/05/01 12:02:42;;;;;;;1999.90;999.90;;;15.20;93.20;;;;;;5079536;28;20427;-71
2021/05/01 12:05:12;;;;;;;1999.90;999.90;;;15.50;92.30;;;;;;5082432;28;20040;-71
2021/05/01 12:08:09;;;;;;;1999.90;999.90;;;15.50;91.70;;;;;;5081567;28;20538;-71
2021/05/01 12:10:39;;;;;;;1999.90;999.90;;;15.50;90.20;;;;;;5084566;28;20339;-71
2021/05/01 12:13:28;;;;;;;1999.90;999.90;;;15.50;90.80;;;;;;5081939;28;20044;-71
2021/05/01 12:15:56;;;;;;;1999.90;999.90;;;15.50;82.30;;;;;;5081472;28;20150;-71
2021/05/01 12:18:39;;;;;;;1999.90;999.90;;;15.50;91.10;;;;;;5088131;28;20040;-71
2021/05/01 12:21:06;;;;;;;1999.90;999.90;;;15.60;91.60;;;;;;5085574;28;20058;-71
2021/05/01 12:23:46;;;;;;;1999.90;999.90;;;15.50;92.00;;;;;;5082330;28;20123;-71